Terminal Aerodrome Forecast
Issued by NWS

Home | Current Version | Previous Version | Text Only | Print | Product List | Glossary On
Versions: 1 2 3 4 5 6 7 8 9 10 11 12 13 14 15 16 17 18 19 20
000
FTAK31 PAFA 260545
TAFABT
TAF
PABT 260545Z 2606/2706 17010G18KT 3/4SM -SN BLSN BR VV016
     FM260700 19010KT 1 1/2SM -SN BR BKN010 OVC025=

USA.gov is the U.S. government's official web portal to all federal, state and local government web resources and services.